Airfield :
LOGIN :

Register | Disclaimer

   EN    FR    IT 

 










Legend :    VFR   Marginal VFR   IFR   Intensive IFR   Very Intensive IFR
Visi :
Ceiling :
>= 8 km
>= 3000ft
5 to 8 km
1000 to 3000 ft
1500m to 5 km
500 to 1000 ft
800 to 1500m
200 to 500 ft
< 800m
< 200 ft
Symbols :   Thunderstorms  Fog  Heavy snow  Heavy precipitations  Wind > 20 kt
SIGMETs :     Misc.  Thunderstorms  Icing  Turbulence  Mountain Waves  Volcanic Ashes






- Airport Elevation : 276 ft


LYVR - Vršac International

CURRENT METAR :
  • 210630Z VRB01KT 6000 NSC M02/M02 Q1024 NOSIG

EXPIRED METARs :
  • 210600Z VRB02KT 3000 BR MIFG NSC M04/M04 Q1023 BECMG 6000 NSW
  • 210530Z 06001KT 0500 R19/0550N R01/P2000N FZFG NSC M07/M07 Q1023 NOSIG
  • 210500Z AUTO VRB01KT 2500 0500 R19/1800D R01/0550N BR BCFG NSC M06/M06 Q1023
  • 210430Z AUTO VRB01KT 8000 NSC M05/M05 Q1023
  • 210400Z AUTO 00000KT 7000 NSC M06/M07 Q1023

TAF TAF LYVR
Valid from the 21 at 06:00 until the 22 at 06:00 UTC


210500Z 2106/2206 18004KT 6000 NSC TX08/2113Z TNM06/2106Z
TEMPO 2106/2108 2000 BR
BECMG 2112/2114 33014KT
TEMPO 2114/2122 RA BKN010 BKN027
BECMG 2203/2205 27004KT



MET'MAP, your aeronautical weather chart ! - Copyright ORBIFLY December 2007 - Disclaimer

ORBIFLY MET'MAP TEAM :

Programming & Development : Alexandra Zaïnal
Concept & original design : Baudouin d'Aumeries
Assistance for programming : Marc-Olivier Méhu
Technical & hardware support : Manuel Goepfert

Contact : metmap@orbifly.com




SOURCES & CREDITS :

   NOAA